sensor_id;sensor_type;location;lat;lon;timestamp;P1;durP1;ratioP1;P2;durP2;ratioP2
2035;SDS011;23642;42.658;23.350;2023-02-27T00:02:18;108.53;;;99.67;;
2035;SDS011;23642;42.658;23.350;2023-02-27T00:04:45;104.03;;;96.20;;
2035;SDS011;23642;42.658;23.350;2023-02-27T00:07:12;105.90;;;98.03;;
2035;SDS011;23642;42.658;23.350;2023-02-27T00:09:38;106.37;;;98.53;;
2035;SDS011;23642;42.658;23.350;2023-02-27T00:12:06;107.90;;;98.10;;
2035;SDS011;23642;42.658;23.350;2023-02-27T00:14:33;104.20;;;96.17;;
2035;SDS011;23642;42.658;23.350;2023-02-27T00:17:01;103.77;;;95.00;;
2035;SDS011;23642;42.658;23.350;2023-02-27T00:19:27;106.00;;;97.40;;
2035;SDS011;23642;42.658;23.350;2023-02-27T00:21:54;106.03;;;98.07;;
2035;SDS011;23642;42.658;23.350;2023-02-27T00:24:21;106.23;;;97.70;;
2035;SDS011;23642;42.658;23.350;2023-02-27T00:26:47;106.73;;;98.53;;
2035;SDS011;23642;42.658;23.350;2023-02-27T00:29:14;105.90;;;97.60;;
2035;SDS011;23642;42.658;23.350;2023-02-27T00:31:41;106.67;;;97.87;;
2035;SDS011;23642;42.658;23.350;2023-02-27T00:34:09;107.13;;;98.57;;
2035;SDS011;23642;42.658;23.350;2023-02-27T00:36:36;107.90;;;98.53;;
2035;SDS011;23642;42.658;23.350;2023-02-27T00:39:03;106.63;;;98.07;;
2035;SDS011;23642;42.658;23.350;2023-02-27T00:41:29;105.13;;;96.37;;
2035;SDS011;23642;42.658;23.350;2023-02-27T00:43:56;105.77;;;97.17;;
2035;SDS011;23642;42.658;23.350;2023-02-27T00:46:23;105.23;;;96.57;;
2035;SDS011;23642;42.658;23.350;2023-02-27T00:48:49;105.90;;;97.50;;
2035;SDS011;23642;42.658;23.350;2023-02-27T00:51:18;104.67;;;95.93;;
2035;SDS011;23642;42.658;23.350;2023-02-27T00:53:46;106.10;;;97.47;;
2035;SDS011;23642;42.658;23.350;2023-02-27T00:56:12;100.87;;;93.17;;
2035;SDS011;23642;42.658;23.350;2023-02-27T00:58:39;103.47;;;95.30;;
2035;SDS011;23642;42.658;23.350;2023-02-27T01:01:06;104.90;;;96.73;;
2035;SDS011;23642;42.658;23.350;2023-02-27T01:03:32;104.90;;;97.00;;
2035;SDS011;23642;42.658;23.350;2023-02-27T01:05:59;105.63;;;97.20;;
2035;SDS011;23642;42.658;23.350;2023-02-27T01:08:27;104.80;;;96.70;;
2035;SDS011;23642;42.658;23.350;2023-02-27T01:10:54;102.77;;;94.53;;
2035;SDS011;23642;42.658;23.350;2023-02-27T01:13:22;105.17;;;96.80;;
2035;SDS011;23642;42.658;23.350;2023-02-27T01:15:49;105.97;;;97.57;;
2035;SDS011;23642;42.658;23.350;2023-02-27T01:18:16;108.63;;;99.90;;
2035;SDS011;23642;42.658;23.350;2023-02-27T01:20:42;107.20;;;97.80;;
2035;SDS011;23642;42.658;23.350;2023-02-27T01:23:09;105.67;;;97.60;;
2035;SDS011;23642;42.658;23.350;2023-02-27T01:25:37;105.20;;;96.93;;
2035;SDS011;23642;42.658;23.350;2023-02-27T01:28:04;104.47;;;95.80;;
2035;SDS011;23642;42.658;23.350;2023-02-27T01:30:31;104.73;;;96.30;;
2035;SDS011;23642;42.658;23.350;2023-02-27T01:32:57;104.90;;;96.50;;
2035;SDS011;23642;42.658;23.350;2023-02-27T01:35:24;105.73;;;97.10;;
2035;SDS011;23642;42.658;23.350;2023-02-27T01:37:51;104.93;;;96.37;;
2035;SDS011;23642;42.658;23.350;2023-02-27T01:40:18;105.53;;;97.37;;
2035;SDS011;23642;42.658;23.350;2023-02-27T01:42:46;106.60;;;98.60;;
2035;SDS011;23642;42.658;23.350;2023-02-27T01:45:26;109.03;;;100.00;;
2035;SDS011;23642;42.658;23.350;2023-02-27T01:47:57;104.50;;;95.90;;
2035;SDS011;23642;42.658;23.350;2023-02-27T01:50:29;107.93;;;99.60;;
2035;SDS011;23642;42.658;23.350;2023-02-27T01:52:57;103.70;;;96.50;;
2035;SDS011;23642;42.658;23.350;2023-02-27T01:55:26;102.73;;;95.13;;
2035;SDS011;23642;42.658;23.350;2023-02-27T01:57:57;106.20;;;97.77;;
2035;SDS011;23642;42.658;23.350;2023-02-27T02:00:25;107.40;;;99.17;;
2035;SDS011;23642;42.658;23.350;2023-02-27T02:02:55;105.17;;;97.17;;
2035;SDS011;23642;42.658;23.350;2023-02-27T02:05:26;102.87;;;94.17;;
2035;SDS011;23642;42.658;23.350;2023-02-27T02:07:54;107.47;;;98.63;;
2035;SDS011;23642;42.658;23.350;2023-02-27T02:10:22;105.47;;;97.07;;
2035;SDS011;23642;42.658;23.350;2023-02-27T02:12:50;108.13;;;98.80;;
2035;SDS011;23642;42.658;23.350;2023-02-27T02:15:19;113.80;;;105.00;;
2035;SDS011;23642;42.658;23.350;2023-02-27T02:17:53;123.07;;;113.60;;
2035;SDS011;23642;42.658;23.350;2023-02-27T02:33:13;105.87;;;98.03;;
2035;SDS011;23642;42.658;23.350;2023-02-27T02:36:31;102.80;;;94.90;;
2035;SDS011;23642;42.658;23.350;2023-02-27T02:42:23;94.30;;;87.53;;
2035;SDS011;23642;42.658;23.350;2023-02-27T02:44:55;93.20;;;86.47;;
2035;SDS011;23642;42.658;23.350;2023-02-27T02:47:32;94.00;;;87.40;;
2035;SDS011;23642;42.658;23.350;2023-02-27T02:50:07;95.27;;;87.97;;
2035;SDS011;23642;42.658;23.350;2023-02-27T02:52:41;93.90;;;87.13;;
2035;SDS011;23642;42.658;23.350;2023-02-27T02:55:17;88.07;;;81.87;;
2035;SDS011;23642;42.658;23.350;2023-02-27T02:57:50;90.47;;;83.80;;
2035;SDS011;23642;42.658;23.350;2023-02-27T03:00:23;87.47;;;81.27;;
2035;SDS011;23642;42.658;23.350;2023-02-27T03:02:56;87.60;;;81.40;;
2035;SDS011;23642;42.658;23.350;2023-02-27T03:05:29;86.00;;;79.40;;
2035;SDS011;23642;42.658;23.350;2023-02-27T03:08:00;82.03;;;76.00;;
2035;SDS011;23642;42.658;23.350;2023-02-27T03:10:33;82.37;;;76.23;;
2035;SDS011;23642;42.658;23.350;2023-02-27T03:13:05;81.53;;;75.70;;
2035;SDS011;23642;42.658;23.350;2023-02-27T03:15:37;82.00;;;76.37;;
2035;SDS011;23642;42.658;23.350;2023-02-27T03:18:11;79.70;;;74.10;;
2035;SDS011;23642;42.658;23.350;2023-02-27T03:20:45;82.53;;;76.93;;
2035;SDS011;23642;42.658;23.350;2023-02-27T03:23:17;80.63;;;74.87;;
2035;SDS011;23642;42.658;23.350;2023-02-27T03:25:49;87.33;;;81.13;;
2035;SDS011;23642;42.658;23.350;2023-02-27T03:28:17;92.33;;;85.57;;
2035;SDS011;23642;42.658;23.350;2023-02-27T03:30:48;87.47;;;81.30;;
2035;SDS011;23642;42.658;23.350;2023-02-27T03:33:21;86.67;;;80.50;;
2035;SDS011;23642;42.658;23.350;2023-02-27T03:35:52;89.43;;;83.20;;
2035;SDS011;23642;42.658;23.350;2023-02-27T03:38:26;88.83;;;82.73;;
2035;SDS011;23642;42.658;23.350;2023-02-27T03:41:03;86.43;;;80.30;;
2035;SDS011;23642;42.658;23.350;2023-02-27T03:43:39;87.30;;;80.90;;
2035;SDS011;23642;42.658;23.350;2023-02-27T03:46:14;87.63;;;81.43;;
2035;SDS011;23642;42.658;23.350;2023-02-27T03:48:42;87.50;;;81.07;;
2035;SDS011;23642;42.658;23.350;2023-02-27T03:51:11;87.40;;;81.30;;
2035;SDS011;23642;42.658;23.350;2023-02-27T03:53:40;86.73;;;80.67;;
2035;SDS011;23642;42.658;23.350;2023-02-27T03:56:13;86.87;;;80.77;;
2035;SDS011;23642;42.658;23.350;2023-02-27T03:58:44;88.37;;;82.17;;
2035;SDS011;23642;42.658;23.350;2023-02-27T04:01:11;88.37;;;82.17;;
2035;SDS011;23642;42.658;23.350;2023-02-27T04:03:40;90.67;;;84.40;;
2035;SDS011;23642;42.658;23.350;2023-02-27T04:06:11;88.77;;;82.57;;
2035;SDS011;23642;42.658;23.350;2023-02-27T04:08:57;87.77;;;81.70;;
2035;SDS011;23642;42.658;23.350;2023-02-27T04:11:47;87.63;;;81.53;;
2035;SDS011;23642;42.658;23.350;2023-02-27T04:14:30;85.80;;;79.90;;
2035;SDS011;23642;42.658;23.350;2023-02-27T04:19:57;84.97;;;79.07;;
2035;SDS011;23642;42.658;23.350;2023-02-27T04:22:39;83.67;;;77.70;;
2035;SDS011;23642;42.658;23.350;2023-02-27T04:25:23;86.37;;;80.47;;
2035;SDS011;23642;42.658;23.350;2023-02-27T04:28:15;83.70;;;77.93;;
2035;SDS011;23642;42.658;23.350;2023-02-27T04:30:45;83.73;;;78.03;;
2035;SDS011;23642;42.658;23.350;2023-02-27T04:33:24;82.00;;;76.40;;
2035;SDS011;23642;42.658;23.350;2023-02-27T04:35:59;80.70;;;75.10;;
2035;SDS011;23642;42.658;23.350;2023-02-27T04:38:32;81.67;;;76.13;;
2035;SDS011;23642;42.658;23.350;2023-02-27T04:41:04;81.50;;;75.80;;
2035;SDS011;23642;42.658;23.350;2023-02-27T04:43:36;81.10;;;75.50;;
2035;SDS011;23642;42.658;23.350;2023-02-27T04:46:07;81.03;;;75.47;;
2035;SDS011;23642;42.658;23.350;2023-02-27T04:48:40;78.80;;;73.30;;
2035;SDS011;23642;42.658;23.350;2023-02-27T04:51:14;81.00;;;75.40;;
2035;SDS011;23642;42.658;23.350;2023-02-27T04:53:46;81.30;;;75.50;;
2035;SDS011;23642;42.658;23.350;2023-02-27T04:56:17;81.20;;;75.60;;
2035;SDS011;23642;42.658;23.350;2023-02-27T04:58:49;83.30;;;77.60;;
2035;SDS011;23642;42.658;23.350;2023-02-27T05:01:22;83.37;;;77.77;;
2035;SDS011;23642;42.658;23.350;2023-02-27T05:03:51;83.37;;;77.67;;
2035;SDS011;23642;42.658;23.350;2023-02-27T05:06:20;83.63;;;77.87;;
2035;SDS011;23642;42.658;23.350;2023-02-27T05:08:52;81.90;;;76.30;;
2035;SDS011;23642;42.658;23.350;2023-02-27T05:11:24;80.50;;;74.83;;
2035;SDS011;23642;42.658;23.350;2023-02-27T05:13:58;81.50;;;75.80;;
2035;SDS011;23642;42.658;23.350;2023-02-27T05:16:30;81.20;;;75.50;;
2035;SDS011;23642;42.658;23.350;2023-02-27T05:19:02;82.30;;;76.70;;
2035;SDS011;23642;42.658;23.350;2023-02-27T05:21:30;82.03;;;76.20;;
2035;SDS011;23642;42.658;23.350;2023-02-27T05:24:09;82.70;;;76.90;;
2035;SDS011;23642;42.658;23.350;2023-02-27T05:26:48;80.50;;;74.80;;
2035;SDS011;23642;42.658;23.350;2023-02-27T05:29:38;82.17;;;76.47;;
2035;SDS011;23642;42.658;23.350;2023-02-27T05:32:13;83.83;;;77.93;;
2035;SDS011;23642;42.658;23.350;2023-02-27T05:34:48;84.20;;;78.40;;
2035;SDS011;23642;42.658;23.350;2023-02-27T05:37:22;82.20;;;76.40;;
2035;SDS011;23642;42.658;23.350;2023-02-27T05:39:53;80.30;;;74.77;;
2035;SDS011;23642;42.658;23.350;2023-02-27T05:42:22;82.90;;;77.10;;
2035;SDS011;23642;42.658;23.350;2023-02-27T05:44:55;85.43;;;79.63;;
2035;SDS011;23642;42.658;23.350;2023-02-27T05:47:27;83.50;;;77.80;;
2035;SDS011;23642;42.658;23.350;2023-02-27T05:50:02;84.00;;;78.20;;
2035;SDS011;23642;42.658;23.350;2023-02-27T05:52:32;85.67;;;79.60;;
2035;SDS011;23642;42.658;23.350;2023-02-27T05:55:01;85.37;;;79.53;;
2035;SDS011;23642;42.658;23.350;2023-02-27T05:57:34;85.80;;;79.90;;
2035;SDS011;23642;42.658;23.350;2023-02-27T06:00:07;84.43;;;78.63;;
2035;SDS011;23642;42.658;23.350;2023-02-27T06:02:38;86.93;;;81.00;;
2035;SDS011;23642;42.658;23.350;2023-02-27T06:05:06;83.93;;;78.23;;
2035;SDS011;23642;42.658;23.350;2023-02-27T06:07:33;87.70;;;81.70;;
2035;SDS011;23642;42.658;23.350;2023-02-27T06:10:00;87.60;;;81.60;;
2035;SDS011;23642;42.658;23.350;2023-02-27T06:12:27;88.67;;;82.53;;
2035;SDS011;23642;42.658;23.350;2023-02-27T06:14:54;89.23;;;83.23;;
2035;SDS011;23642;42.658;23.350;2023-02-27T06:17:22;89.60;;;83.40;;
2035;SDS011;23642;42.658;23.350;2023-02-27T06:19:49;90.80;;;84.60;;
2035;SDS011;23642;42.658;23.350;2023-02-27T06:22:15;88.67;;;82.57;;
2035;SDS011;23642;42.658;23.350;2023-02-27T06:24:42;87.43;;;81.47;;
2035;SDS011;23642;42.658;23.350;2023-02-27T06:27:09;87.60;;;81.73;;
2035;SDS011;23642;42.658;23.350;2023-02-27T06:29:36;88.57;;;82.57;;
2035;SDS011;23642;42.658;23.350;2023-02-27T06:32:03;88.17;;;82.17;;
2035;SDS011;23642;42.658;23.350;2023-02-27T06:36:59;90.90;;;84.80;;
2035;SDS011;23642;42.658;23.350;2023-02-27T06:39:25;90.10;;;83.80;;
2035;SDS011;23642;42.658;23.350;2023-02-27T06:41:52;91.50;;;85.20;;
2035;SDS011;23642;42.658;23.350;2023-02-27T06:44:19;90.57;;;84.27;;
2035;SDS011;23642;42.658;23.350;2023-02-27T06:46:46;89.13;;;83.03;;
2035;SDS011;23642;42.658;23.350;2023-02-27T06:49:13;92.80;;;86.53;;
2035;SDS011;23642;42.658;23.350;2023-02-27T06:51:41;93.23;;;86.90;;
2035;SDS011;23642;42.658;23.350;2023-02-27T06:54:07;92.00;;;85.80;;
2035;SDS011;23642;42.658;23.350;2023-02-27T06:56:34;93.60;;;87.20;;
2035;SDS011;23642;42.658;23.350;2023-02-27T06:59:01;91.43;;;85.17;;
2035;SDS011;23642;42.658;23.350;2023-02-27T07:01:29;91.90;;;85.60;;
2035;SDS011;23642;42.658;23.350;2023-02-27T07:03:56;92.67;;;86.27;;
2035;SDS011;23642;42.658;23.350;2023-02-27T07:06:24;89.53;;;83.43;;
2035;SDS011;23642;42.658;23.350;2023-02-27T07:08:52;91.70;;;85.40;;
2035;SDS011;23642;42.658;23.350;2023-02-27T07:11:19;91.63;;;85.00;;
2035;SDS011;23642;42.658;23.350;2023-02-27T07:13:46;95.50;;;88.83;;
2035;SDS011;23642;42.658;23.350;2023-02-27T07:16:12;93.90;;;86.97;;
2035;SDS011;23642;42.658;23.350;2023-02-27T07:18:39;90.57;;;84.33;;
2035;SDS011;23642;42.658;23.350;2023-02-27T07:21:06;92.13;;;85.50;;
2035;SDS011;23642;42.658;23.350;2023-02-27T07:23:33;92.53;;;86.17;;
2035;SDS011;23642;42.658;23.350;2023-02-27T07:26:01;90.53;;;84.33;;
2035;SDS011;23642;42.658;23.350;2023-02-27T07:28:28;92.00;;;85.67;;
2035;SDS011;23642;42.658;23.350;2023-02-27T07:30:54;93.00;;;86.60;;
2035;SDS011;23642;42.658;23.350;2023-02-27T07:33:22;91.67;;;85.33;;
2035;SDS011;23642;42.658;23.350;2023-02-27T07:35:52;89.43;;;83.33;;
2035;SDS011;23642;42.658;23.350;2023-02-27T07:38:19;90.87;;;84.67;;
2035;SDS011;23642;42.658;23.350;2023-02-27T07:40:46;92.60;;;86.30;;
2035;SDS011;23642;42.658;23.350;2023-02-27T07:43:15;92.00;;;85.70;;
2035;SDS011;23642;42.658;23.350;2023-02-27T07:45:43;89.40;;;83.20;;
2035;SDS011;23642;42.658;23.350;2023-02-27T07:48:15;93.60;;;87.20;;
2035;SDS011;23642;42.658;23.350;2023-02-27T07:50:41;93.97;;;87.57;;
2035;SDS011;23642;42.658;23.350;2023-02-27T07:53:08;92.30;;;85.80;;
2035;SDS011;23642;42.658;23.350;2023-02-27T07:55:37;91.27;;;84.97;;
2035;SDS011;23642;42.658;23.350;2023-02-27T07:58:04;93.20;;;86.80;;
2035;SDS011;23642;42.658;23.350;2023-02-27T08:00:32;93.33;;;86.97;;
2035;SDS011;23642;42.658;23.350;2023-02-27T08:03:00;92.93;;;86.63;;
2035;SDS011;23642;42.658;23.350;2023-02-27T08:05:27;93.90;;;87.30;;
2035;SDS011;23642;42.658;23.350;2023-02-27T08:07:55;91.80;;;85.50;;
2035;SDS011;23642;42.658;23.350;2023-02-27T08:10:21;90.17;;;83.87;;
2035;SDS011;23642;42.658;23.350;2023-02-27T08:12:48;97.17;;;88.57;;
2035;SDS011;23642;42.658;23.350;2023-02-27T08:17:52;94.13;;;87.63;;
2035;SDS011;23642;42.658;23.350;2023-02-27T08:20:19;95.83;;;88.33;;
2035;SDS011;23642;42.658;23.350;2023-02-27T08:22:48;95.37;;;88.57;;
2035;SDS011;23642;42.658;23.350;2023-02-27T08:25:15;94.63;;;88.20;;
2035;SDS011;23642;42.658;23.350;2023-02-27T08:27:59;95.93;;;89.43;;
2035;SDS011;23642;42.658;23.350;2023-02-27T08:30:31;96.33;;;89.67;;
2035;SDS011;23642;42.658;23.350;2023-02-27T08:36:02;97.17;;;90.53;;
2035;SDS011;23642;42.658;23.350;2023-02-27T08:38:29;96.57;;;90.17;;
2035;SDS011;23642;42.658;23.350;2023-02-27T08:40:58;97.90;;;91.10;;
2035;SDS011;23642;42.658;23.350;2023-02-27T08:43:30;100.77;;;93.37;;
2035;SDS011;23642;42.658;23.350;2023-02-27T08:46:16;95.73;;;89.23;;
2035;SDS011;23642;42.658;23.350;2023-02-27T08:48:44;99.17;;;92.00;;
2035;SDS011;23642;42.658;23.350;2023-02-27T08:51:13;98.33;;;91.53;;
2035;SDS011;23642;42.658;23.350;2023-02-27T08:53:44;96.77;;;90.10;;
2035;SDS011;23642;42.658;23.350;2023-02-27T08:56:17;97.97;;;91.23;;
2035;SDS011;23642;42.658;23.350;2023-02-27T08:58:58;97.73;;;90.90;;
2035;SDS011;23642;42.658;23.350;2023-02-27T09:01:26;99.27;;;91.73;;
2035;SDS011;23642;42.658;23.350;2023-02-27T09:04:00;97.93;;;91.27;;
2035;SDS011;23642;42.658;23.350;2023-02-27T09:06:27;97.07;;;90.43;;
2035;SDS011;23642;42.658;23.350;2023-02-27T09:08:54;97.93;;;91.37;;
2035;SDS011;23642;42.658;23.350;2023-02-27T09:11:22;96.97;;;90.40;;
2035;SDS011;23642;42.658;23.350;2023-02-27T09:13:51;97.97;;;91.40;;
2035;SDS011;23642;42.658;23.350;2023-02-27T09:16:20;97.63;;;91.13;;
2035;SDS011;23642;42.658;23.350;2023-02-27T09:18:47;98.17;;;91.37;;
2035;SDS011;23642;42.658;23.350;2023-02-27T09:21:16;100.10;;;93.20;;
2035;SDS011;23642;42.658;23.350;2023-02-27T09:23:45;95.07;;;88.63;;
2035;SDS011;23642;42.658;23.350;2023-02-27T09:26:13;97.93;;;91.17;;
2035;SDS011;23642;42.658;23.350;2023-02-27T09:28:43;99.47;;;92.27;;
2035;SDS011;23642;42.658;23.350;2023-02-27T09:31:19;100.67;;;93.37;;
2035;SDS011;23642;42.658;23.350;2023-02-27T09:33:57;100.60;;;93.70;;
2035;SDS011;23642;42.658;23.350;2023-02-27T09:36:27;96.37;;;89.87;;
2035;SDS011;23642;42.658;23.350;2023-02-27T09:38:54;103.40;;;94.90;;
2035;SDS011;23642;42.658;23.350;2023-02-27T09:44:19;97.20;;;89.60;;
2035;SDS011;23642;42.658;23.350;2023-02-27T09:47:01;98.40;;;91.60;;
2035;SDS011;23642;42.658;23.350;2023-02-27T09:49:30;98.97;;;92.27;;
2035;SDS011;23642;42.658;23.350;2023-02-27T09:55:33;96.87;;;90.27;;
2035;SDS011;23642;42.658;23.350;2023-02-27T09:58:05;98.70;;;91.30;;
2035;SDS011;23642;42.658;23.350;2023-02-27T10:00:47;98.90;;;90.97;;
2035;SDS011;23642;42.658;23.350;2023-02-27T10:03:43;99.07;;;91.93;;
2035;SDS011;23642;42.658;23.350;2023-02-27T10:06:41;97.63;;;90.80;;
2035;SDS011;23642;42.658;23.350;2023-02-27T10:09:26;99.00;;;92.20;;
2035;SDS011;23642;42.658;23.350;2023-02-27T10:15:01;98.63;;;91.70;;
2035;SDS011;23642;42.658;23.350;2023-02-27T10:17:35;100.90;;;93.30;;
2035;SDS011;23642;42.658;23.350;2023-02-27T10:20:06;98.87;;;91.10;;
2035;SDS011;23642;42.658;23.350;2023-02-27T10:22:39;96.03;;;89.07;;
2035;SDS011;23642;42.658;23.350;2023-02-27T10:25:12;101.83;;;94.70;;
2035;SDS011;23642;42.658;23.350;2023-02-27T10:27:55;97.10;;;90.00;;
2035;SDS011;23642;42.658;23.350;2023-02-27T10:30:31;96.80;;;90.10;;
2035;SDS011;23642;42.658;23.350;2023-02-27T10:33:00;99.77;;;92.40;;
2035;SDS011;23642;42.658;23.350;2023-02-27T10:35:42;102.20;;;93.70;;
2035;SDS011;23642;42.658;23.350;2023-02-27T10:38:10;100.57;;;93.00;;
2035;SDS011;23642;42.658;23.350;2023-02-27T10:40:41;102.30;;;94.80;;
2035;SDS011;23642;42.658;23.350;2023-02-27T10:43:12;101.47;;;93.60;;
2035;SDS011;23642;42.658;23.350;2023-02-27T10:45:43;102.57;;;94.37;;
2035;SDS011;23642;42.658;23.350;2023-02-27T10:48:11;104.23;;;96.03;;
2035;SDS011;23642;42.658;23.350;2023-02-27T10:50:39;100.00;;;93.00;;
2035;SDS011;23642;42.658;23.350;2023-02-27T10:53:16;101.40;;;94.40;;
2035;SDS011;23642;42.658;23.350;2023-02-27T10:58:18;102.83;;;94.13;;
2035;SDS011;23642;42.658;23.350;2023-02-27T11:00:51;100.20;;;93.20;;
2035;SDS011;23642;42.658;23.350;2023-02-27T11:03:21;99.03;;;92.20;;
2035;SDS011;23642;42.658;23.350;2023-02-27T11:05:53;103.37;;;96.27;;
2035;SDS011;23642;42.658;23.350;2023-02-27T11:08:22;103.07;;;95.63;;
2035;SDS011;23642;42.658;23.350;2023-02-27T11:10:58;100.03;;;92.43;;
2035;SDS011;23642;42.658;23.350;2023-02-27T11:13:34;102.10;;;94.60;;
2035;SDS011;23642;42.658;23.350;2023-02-27T11:16:04;103.90;;;96.07;;
2035;SDS011;23642;42.658;23.350;2023-02-27T11:18:38;102.37;;;95.07;;
2035;SDS011;23642;42.658;23.350;2023-02-27T11:21:14;102.33;;;95.00;;
2035;SDS011;23642;42.658;23.350;2023-02-27T11:23:51;103.60;;;96.20;;
2035;SDS011;23642;42.658;23.350;2023-02-27T11:26:22;102.87;;;95.20;;
2035;SDS011;23642;42.658;23.350;2023-02-27T11:31:47;101.90;;;94.87;;
2035;SDS011;23642;42.658;23.350;2023-02-27T11:34:19;103.07;;;95.93;;
2035;SDS011;23642;42.658;23.350;2023-02-27T11:36:53;102.60;;;94.97;;
2035;SDS011;23642;42.658;23.350;2023-02-27T11:39:27;106.67;;;98.93;;
2035;SDS011;23642;42.658;23.350;2023-02-27T11:45:28;103.07;;;95.60;;
2035;SDS011;23642;42.658;23.350;2023-02-27T11:47:58;105.87;;;98.33;;
2035;SDS011;23642;42.658;23.350;2023-02-27T11:50:36;106.93;;;98.63;;
2035;SDS011;23642;42.658;23.350;2023-02-27T11:53:29;109.20;;;100.30;;
2035;SDS011;23642;42.658;23.350;2023-02-27T11:56:28;106.60;;;98.30;;
2035;SDS011;23642;42.658;23.350;2023-02-27T11:59:02;107.57;;;99.10;;
2035;SDS011;23642;42.658;23.350;2023-02-27T12:01:41;108.20;;;99.93;;
2035;SDS011;23642;42.658;23.350;2023-02-27T12:04:16;106.77;;;98.67;;
2035;SDS011;23642;42.658;23.350;2023-02-27T12:09:43;106.90;;;99.10;;
2035;SDS011;23642;42.658;23.350;2023-02-27T12:12:19;106.73;;;99.13;;
2035;SDS011;23642;42.658;23.350;2023-02-27T12:14:54;104.87;;;97.10;;
2035;SDS011;23642;42.658;23.350;2023-02-27T12:17:31;105.53;;;97.83;;
2035;SDS011;23642;42.658;23.350;2023-02-27T12:22:51;107.77;;;100.47;;
2035;SDS011;23642;42.658;23.350;2023-02-27T12:25:40;109.10;;;101.70;;
2035;SDS011;23642;42.658;23.350;2023-02-27T12:28:45;108.00;;;100.37;;
2035;SDS011;23642;42.658;23.350;2023-02-27T12:31:25;108.47;;;100.97;;
2035;SDS011;23642;42.658;23.350;2023-02-27T12:34:00;110.37;;;102.53;;
2035;SDS011;23642;42.658;23.350;2023-02-27T12:36:33;107.03;;;98.60;;
2035;SDS011;23642;42.658;23.350;2023-02-27T12:39:10;106.93;;;99.17;;
2035;SDS011;23642;42.658;23.350;2023-02-27T12:41:50;107.27;;;99.63;;
2035;SDS011;23642;42.658;23.350;2023-02-27T12:44:38;107.50;;;99.50;;
2035;SDS011;23642;42.658;23.350;2023-02-27T12:47:16;109.50;;;100.90;;
2035;SDS011;23642;42.658;23.350;2023-02-27T12:49:53;109.63;;;101.40;;
2035;SDS011;23642;42.658;23.350;2023-02-27T12:52:32;109.20;;;101.10;;
2035;SDS011;23642;42.658;23.350;2023-02-27T12:55:11;112.07;;;102.83;;
2035;SDS011;23642;42.658;23.350;2023-02-27T12:57:50;108.20;;;100.70;;
2035;SDS011;23642;42.658;23.350;2023-02-27T13:00:36;108.83;;;101.27;;
2035;SDS011;23642;42.658;23.350;2023-02-27T13:03:11;106.93;;;99.20;;
2035;SDS011;23642;42.658;23.350;2023-02-27T13:05:44;106.40;;;98.40;;
2035;SDS011;23642;42.658;23.350;2023-02-27T13:08:32;107.93;;;100.33;;
2035;SDS011;23642;42.658;23.350;2023-02-27T13:11:21;106.37;;;98.67;;
2035;SDS011;23642;42.658;23.350;2023-02-27T13:13:52;106.40;;;99.00;;
2035;SDS011;23642;42.658;23.350;2023-02-27T13:16:25;103.73;;;95.40;;
2035;SDS011;23642;42.658;23.350;2023-02-27T13:19:01;104.37;;;97.17;;
2035;SDS011;23642;42.658;23.350;2023-02-27T13:21:33;106.40;;;98.37;;
2035;SDS011;23642;42.658;23.350;2023-02-27T13:24:14;106.57;;;99.20;;
2035;SDS011;23642;42.658;23.350;2023-02-27T13:26:49;105.13;;;97.80;;
2035;SDS011;23642;42.658;23.350;2023-02-27T13:29:25;104.47;;;97.17;;
2035;SDS011;23642;42.658;23.350;2023-02-27T13:31:59;103.27;;;95.63;;
2035;SDS011;23642;42.658;23.350;2023-02-27T13:34:32;105.13;;;97.20;;
2035;SDS011;23642;42.658;23.350;2023-02-27T13:37:05;104.00;;;95.90;;
2035;SDS011;23642;42.658;23.350;2023-02-27T13:51:40;100.60;;;93.60;;
2035;SDS011;23642;42.658;23.350;2023-02-27T13:54:20;101.47;;;93.90;;
2035;SDS011;23642;42.658;23.350;2023-02-27T13:57:15;99.20;;;92.20;;
2035;SDS011;23642;42.658;23.350;2023-02-27T13:59:55;102.17;;;94.53;;
2035;SDS011;23642;42.658;23.350;2023-02-27T14:02:43;99.73;;;92.80;;
2035;SDS011;23642;42.658;23.350;2023-02-27T14:05:28;98.70;;;92.10;;
2035;SDS011;23642;42.658;23.350;2023-02-27T14:08:05;97.27;;;90.40;;
2035;SDS011;23642;42.658;23.350;2023-02-27T14:10:49;98.90;;;91.90;;
2035;SDS011;23642;42.658;23.350;2023-02-27T14:19:42;98.63;;;91.80;;
2035;SDS011;23642;42.658;23.350;2023-02-27T14:22:31;98.73;;;91.70;;
2035;SDS011;23642;42.658;23.350;2023-02-27T14:25:02;99.20;;;91.73;;
2035;SDS011;23642;42.658;23.350;2023-02-27T14:27:48;100.27;;;92.57;;
2035;SDS011;23642;42.658;23.350;2023-02-27T14:30:23;98.07;;;91.37;;
2035;SDS011;23642;42.658;23.350;2023-02-27T14:32:54;100.00;;;92.70;;
2035;SDS011;23642;42.658;23.350;2023-02-27T14:38:14;98.03;;;90.97;;
2035;SDS011;23642;42.658;23.350;2023-02-27T14:40:49;97.93;;;90.90;;
2035;SDS011;23642;42.658;23.350;2023-02-27T14:43:30;96.67;;;89.87;;
2035;SDS011;23642;42.658;23.350;2023-02-27T14:46:04;98.03;;;90.70;;
2035;SDS011;23642;42.658;23.350;2023-02-27T14:48:32;96.37;;;89.70;;
2035;SDS011;23642;42.658;23.350;2023-02-27T14:54:04;95.23;;;88.23;;
2035;SDS011;23642;42.658;23.350;2023-02-27T14:56:40;96.03;;;89.23;;
2035;SDS011;23642;42.658;23.350;2023-02-27T14:59:21;93.40;;;86.90;;
2035;SDS011;23642;42.658;23.350;2023-02-27T15:02:12;99.53;;;92.37;;
2035;SDS011;23642;42.658;23.350;2023-02-27T15:07:57;98.57;;;91.37;;
2035;SDS011;23642;42.658;23.350;2023-02-27T15:10:25;101.57;;;94.07;;
2035;SDS011;23642;42.658;23.350;2023-02-27T15:13:03;107.87;;;99.60;;
2035;SDS011;23642;42.658;23.350;2023-02-27T15:15:33;105.10;;;97.53;;
2035;SDS011;23642;42.658;23.350;2023-02-27T15:18:20;105.20;;;97.07;;
2035;SDS011;23642;42.658;23.350;2023-02-27T15:20:55;101.73;;;94.23;;
2035;SDS011;23642;42.658;23.350;2023-02-27T15:23:23;98.77;;;91.37;;
2035;SDS011;23642;42.658;23.350;2023-02-27T15:25:53;98.03;;;90.83;;
2035;SDS011;23642;42.658;23.350;2023-02-27T15:28:22;96.23;;;89.13;;
2035;SDS011;23642;42.658;23.350;2023-02-27T15:30:57;95.07;;;88.07;;
2035;SDS011;23642;42.658;23.350;2023-02-27T15:33:26;94.60;;;87.73;;
2035;SDS011;23642;42.658;23.350;2023-02-27T15:35:54;93.50;;;86.10;;
2035;SDS011;23642;42.658;23.350;2023-02-27T15:38:24;91.37;;;84.83;;
2035;SDS011;23642;42.658;23.350;2023-02-27T15:41:10;91.20;;;84.50;;
2035;SDS011;23642;42.658;23.350;2023-02-27T15:43:39;91.03;;;84.33;;
2035;SDS011;23642;42.658;23.350;2023-02-27T15:46:09;89.93;;;83.23;;
2035;SDS011;23642;42.658;23.350;2023-02-27T15:48:38;87.13;;;80.63;;
2035;SDS011;23642;42.658;23.350;2023-02-27T15:51:05;92.17;;;85.47;;
2035;SDS011;23642;42.658;23.350;2023-02-27T15:53:34;90.77;;;84.37;;
2035;SDS011;23642;42.658;23.350;2023-02-27T15:56:02;91.20;;;83.93;;
2035;SDS011;23642;42.658;23.350;2023-02-27T15:58:34;87.20;;;80.70;;
2035;SDS011;23642;42.658;23.350;2023-02-27T16:01:04;90.53;;;83.83;;
2035;SDS011;23642;42.658;23.350;2023-02-27T16:03:35;87.10;;;80.77;;
2035;SDS011;23642;42.658;23.350;2023-02-27T16:06:08;89.90;;;83.00;;